sensor_id;sensor_type;location;lat;lon;timestamp;P1;durP1;ratioP1;P2;durP2;ratioP2
5730;SDS011;2890;51.950;7.668;2023-07-24T00:01:25;12.10;;;11.10;;
5730;SDS011;2890;51.950;7.668;2023-07-24T00:03:52;12.27;;;10.97;;
5730;SDS011;2890;51.950;7.668;2023-07-24T00:06:19;11.47;;;10.57;;
5730;SDS011;2890;51.950;7.668;2023-07-24T00:08:46;13.00;;;11.70;;
5730;SDS011;2890;51.950;7.668;2023-07-24T00:11:14;17.13;;;12.30;;
5730;SDS011;2890;51.950;7.668;2023-07-24T00:13:40;13.17;;;11.87;;
5730;SDS011;2890;51.950;7.668;2023-07-24T00:16:07;13.67;;;12.37;;
5730;SDS011;2890;51.950;7.668;2023-07-24T00:18:34;15.60;;;12.00;;
5730;SDS011;2890;51.950;7.668;2023-07-24T00:21:00;12.03;;;10.97;;
5730;SDS011;2890;51.950;7.668;2023-07-24T00:23:27;12.10;;;11.10;;
5730;SDS011;2890;51.950;7.668;2023-07-24T00:25:54;12.90;;;11.30;;
5730;SDS011;2890;51.950;7.668;2023-07-24T00:28:21;16.07;;;12.90;;
5730;SDS011;2890;51.950;7.668;2023-07-24T00:30:48;15.10;;;12.50;;
5730;SDS011;2890;51.950;7.668;2023-07-24T00:33:14;13.63;;;12.23;;
5730;SDS011;2890;51.950;7.668;2023-07-24T00:35:41;13.70;;;12.30;;
5730;SDS011;2890;51.950;7.668;2023-07-24T00:38:08;14.93;;;12.27;;
5730;SDS011;2890;51.950;7.668;2023-07-24T00:40:34;14.20;;;12.73;;
5730;SDS011;2890;51.950;7.668;2023-07-24T00:43:01;11.93;;;10.80;;
5730;SDS011;2890;51.950;7.668;2023-07-24T00:45:28;13.03;;;11.23;;
5730;SDS011;2890;51.950;7.668;2023-07-24T00:47:55;12.70;;;11.40;;
5730;SDS011;2890;51.950;7.668;2023-07-24T00:50:22;15.20;;;10.23;;
5730;SDS011;2890;51.950;7.668;2023-07-24T00:52:49;11.77;;;9.87;;
5730;SDS011;2890;51.950;7.668;2023-07-24T00:55:15;11.43;;;9.20;;
5730;SDS011;2890;51.950;7.668;2023-07-24T00:57:42;13.33;;;8.70;;
5730;SDS011;2890;51.950;7.668;2023-07-24T01:00:10;9.60;;;8.33;;
5730;SDS011;2890;51.950;7.668;2023-07-24T01:02:39;13.43;;;8.70;;
5730;SDS011;2890;51.950;7.668;2023-07-24T01:05:05;11.13;;;9.27;;
5730;SDS011;2890;51.950;7.668;2023-07-24T01:07:32;10.57;;;9.10;;
5730;SDS011;2890;51.950;7.668;2023-07-24T01:09:59;11.83;;;8.80;;
5730;SDS011;2890;51.950;7.668;2023-07-24T01:12:27;9.60;;;8.70;;
5730;SDS011;2890;51.950;7.668;2023-07-24T01:14:58;17.43;;;9.23;;
5730;SDS011;2890;51.950;7.668;2023-07-24T01:17:29;9.77;;;8.77;;
5730;SDS011;2890;51.950;7.668;2023-07-24T01:19:58;12.63;;;7.93;;
5730;SDS011;2890;51.950;7.668;2023-07-24T01:22:31;17.97;;;7.27;;
5730;SDS011;2890;51.950;7.668;2023-07-24T01:25:00;8.30;;;7.50;;
5730;SDS011;2890;51.950;7.668;2023-07-24T01:27:33;9.03;;;7.70;;
5730;SDS011;2890;51.950;7.668;2023-07-24T01:29:59;7.97;;;7.17;;
5730;SDS011;2890;51.950;7.668;2023-07-24T01:32:26;8.37;;;7.53;;
5730;SDS011;2890;51.950;7.668;2023-07-24T01:34:52;8.33;;;7.43;;
5730;SDS011;2890;51.950;7.668;2023-07-24T01:37:19;14.53;;;7.80;;
5730;SDS011;2890;51.950;7.668;2023-07-24T01:39:46;11.03;;;7.67;;
5730;SDS011;2890;51.950;7.668;2023-07-24T01:42:13;7.30;;;6.70;;
5730;SDS011;2890;51.950;7.668;2023-07-24T01:44:41;11.83;;;7.50;;
5730;SDS011;2890;51.950;7.668;2023-07-24T01:47:08;13.33;;;7.43;;
5730;SDS011;2890;51.950;7.668;2023-07-24T01:49:34;7.87;;;7.07;;
5730;SDS011;2890;51.950;7.668;2023-07-24T01:52:01;9.67;;;6.90;;
5730;SDS011;2890;51.950;7.668;2023-07-24T01:54:28;7.33;;;6.73;;
5730;SDS011;2890;51.950;7.668;2023-07-24T01:56:54;10.00;;;7.03;;
5730;SDS011;2890;51.950;7.668;2023-07-24T01:59:21;7.80;;;7.17;;
5730;SDS011;2890;51.950;7.668;2023-07-24T02:01:48;7.63;;;6.20;;
5730;SDS011;2890;51.950;7.668;2023-07-24T02:04:15;11.17;;;7.30;;
5730;SDS011;2890;51.950;7.668;2023-07-24T02:06:41;13.40;;;7.40;;
5730;SDS011;2890;51.950;7.668;2023-07-24T02:09:08;7.70;;;7.00;;
5730;SDS011;2890;51.950;7.668;2023-07-24T02:11:36;12.50;;;8.40;;
5730;SDS011;2890;51.950;7.668;2023-07-24T02:14:02;10.90;;;7.40;;
5730;SDS011;2890;51.950;7.668;2023-07-24T02:16:29;15.33;;;7.07;;
5730;SDS011;2890;51.950;7.668;2023-07-24T02:18:56;11.23;;;7.20;;
5730;SDS011;2890;51.950;7.668;2023-07-24T02:21:23;15.07;;;7.50;;
5730;SDS011;2890;51.950;7.668;2023-07-24T02:23:49;9.10;;;7.20;;
5730;SDS011;2890;51.950;7.668;2023-07-24T02:26:16;9.50;;;8.50;;
5730;SDS011;2890;51.950;7.668;2023-07-24T02:28:42;10.67;;;7.73;;
5730;SDS011;2890;51.950;7.668;2023-07-24T02:31:09;8.13;;;7.40;;
5730;SDS011;2890;51.950;7.668;2023-07-24T02:33:35;11.77;;;7.67;;
5730;SDS011;2890;51.950;7.668;2023-07-24T02:36:03;9.90;;;6.50;;
5730;SDS011;2890;51.950;7.668;2023-07-24T02:38:30;9.40;;;6.77;;
5730;SDS011;2890;51.950;7.668;2023-07-24T02:40:57;7.43;;;6.50;;
5730;SDS011;2890;51.950;7.668;2023-07-24T02:43:23;8.80;;;7.00;;
5730;SDS011;2890;51.950;7.668;2023-07-24T02:45:50;9.53;;;7.10;;
5730;SDS011;2890;51.950;7.668;2023-07-24T02:48:16;8.10;;;7.30;;
5730;SDS011;2890;51.950;7.668;2023-07-24T02:50:43;8.00;;;7.20;;
5730;SDS011;2890;51.950;7.668;2023-07-24T02:53:11;10.13;;;7.30;;
5730;SDS011;2890;51.950;7.668;2023-07-24T02:55:41;9.60;;;8.07;;
5730;SDS011;2890;51.950;7.668;2023-07-24T02:58:08;7.67;;;6.73;;
5730;SDS011;2890;51.950;7.668;2023-07-24T03:00:34;7.60;;;6.77;;
5730;SDS011;2890;51.950;7.668;2023-07-24T03:03:01;9.03;;;6.73;;
5730;SDS011;2890;51.950;7.668;2023-07-24T03:05:27;8.40;;;7.60;;
5730;SDS011;2890;51.950;7.668;2023-07-24T03:07:54;7.80;;;7.00;;
5730;SDS011;2890;51.950;7.668;2023-07-24T03:10:24;8.23;;;7.43;;
5730;SDS011;2890;51.950;7.668;2023-07-24T03:12:51;9.30;;;6.80;;
5730;SDS011;2890;51.950;7.668;2023-07-24T03:15:17;8.53;;;6.33;;
5730;SDS011;2890;51.950;7.668;2023-07-24T03:17:44;8.57;;;7.23;;
5730;SDS011;2890;51.950;7.668;2023-07-24T03:20:12;6.93;;;6.37;;
5730;SDS011;2890;51.950;7.668;2023-07-24T03:22:40;7.90;;;6.93;;
5730;SDS011;2890;51.950;7.668;2023-07-24T03:25:07;8.03;;;7.23;;
5730;SDS011;2890;51.950;7.668;2023-07-24T03:27:35;8.70;;;7.70;;
5730;SDS011;2890;51.950;7.668;2023-07-24T03:30:02;10.40;;;6.80;;
5730;SDS011;2890;51.950;7.668;2023-07-24T03:32:29;11.13;;;7.47;;
5730;SDS011;2890;51.950;7.668;2023-07-24T03:34:55;14.93;;;7.53;;
5730;SDS011;2890;51.950;7.668;2023-07-24T03:37:22;8.43;;;7.63;;
5730;SDS011;2890;51.950;7.668;2023-07-24T03:39:48;10.90;;;8.80;;
5730;SDS011;2890;51.950;7.668;2023-07-24T03:42:24;12.70;;;7.70;;
5730;SDS011;2890;51.950;7.668;2023-07-24T03:44:52;8.60;;;7.80;;
5730;SDS011;2890;51.950;7.668;2023-07-24T03:47:19;10.13;;;8.10;;
5730;SDS011;2890;51.950;7.668;2023-07-24T03:49:45;9.90;;;7.93;;
5730;SDS011;2890;51.950;7.668;2023-07-24T03:52:12;9.73;;;7.73;;
5730;SDS011;2890;51.950;7.668;2023-07-24T03:54:38;13.43;;;8.50;;
5730;SDS011;2890;51.950;7.668;2023-07-24T03:57:05;9.37;;;8.37;;
5730;SDS011;2890;51.950;7.668;2023-07-24T03:59:31;9.87;;;8.80;;
5730;SDS011;2890;51.950;7.668;2023-07-24T04:01:59;9.20;;;7.57;;
5730;SDS011;2890;51.950;7.668;2023-07-24T04:04:26;8.87;;;7.87;;
5730;SDS011;2890;51.950;7.668;2023-07-24T04:06:52;10.63;;;8.00;;
5730;SDS011;2890;51.950;7.668;2023-07-24T04:09:19;9.60;;;7.10;;
5730;SDS011;2890;51.950;7.668;2023-07-24T04:11:45;12.10;;;8.10;;
5730;SDS011;2890;51.950;7.668;2023-07-24T04:14:12;12.67;;;8.67;;
5730;SDS011;2890;51.950;7.668;2023-07-24T04:16:38;11.40;;;9.20;;
5730;SDS011;2890;51.950;7.668;2023-07-24T04:19:06;12.40;;;9.67;;
5730;SDS011;2890;51.950;7.668;2023-07-24T04:21:33;14.30;;;9.50;;
5730;SDS011;2890;51.950;7.668;2023-07-24T04:24:00;18.80;;;9.10;;
5730;SDS011;2890;51.950;7.668;2023-07-24T04:26:26;17.37;;;9.60;;
5730;SDS011;2890;51.950;7.668;2023-07-24T04:28:53;15.60;;;10.47;;
5730;SDS011;2890;51.950;7.668;2023-07-24T04:31:20;19.90;;;10.90;;
5730;SDS011;2890;51.950;7.668;2023-07-24T04:33:47;15.50;;;10.00;;
5730;SDS011;2890;51.950;7.668;2023-07-24T04:36:14;21.57;;;10.90;;
5730;SDS011;2890;51.950;7.668;2023-07-24T04:38:41;27.63;;;10.73;;
5730;SDS011;2890;51.950;7.668;2023-07-24T04:41:07;24.93;;;11.37;;
5730;SDS011;2890;51.950;7.668;2023-07-24T04:43:34;19.83;;;11.80;;
5730;SDS011;2890;51.950;7.668;2023-07-24T04:46:00;28.53;;;12.27;;
5730;SDS011;2890;51.950;7.668;2023-07-24T04:48:27;18.70;;;11.60;;
5730;SDS011;2890;51.950;7.668;2023-07-24T04:50:54;20.10;;;12.07;;
5730;SDS011;2890;51.950;7.668;2023-07-24T04:53:22;20.23;;;12.40;;
5730;SDS011;2890;51.950;7.668;2023-07-24T04:55:49;30.07;;;13.40;;
5730;SDS011;2890;51.950;7.668;2023-07-24T04:58:15;25.43;;;12.80;;
5730;SDS011;2890;51.950;7.668;2023-07-24T05:00:42;41.73;;;14.57;;
5730;SDS011;2890;51.950;7.668;2023-07-24T05:03:08;38.40;;;14.50;;
5730;SDS011;2890;51.950;7.668;2023-07-24T05:05:36;35.27;;;14.50;;
5730;SDS011;2890;51.950;7.668;2023-07-24T05:08:03;31.00;;;13.60;;
5730;SDS011;2890;51.950;7.668;2023-07-24T05:10:36;32.40;;;15.03;;
5730;SDS011;2890;51.950;7.668;2023-07-24T05:13:04;23.20;;;13.33;;
5730;SDS011;2890;51.950;7.668;2023-07-24T05:15:30;35.20;;;15.40;;
5730;SDS011;2890;51.950;7.668;2023-07-24T05:17:57;38.53;;;15.60;;
5730;SDS011;2890;51.950;7.668;2023-07-24T05:20:23;23.27;;;13.10;;
5730;SDS011;2890;51.950;7.668;2023-07-24T05:22:50;21.13;;;11.60;;
5730;SDS011;2890;51.950;7.668;2023-07-24T05:25:16;25.50;;;13.50;;
5730;SDS011;2890;51.950;7.668;2023-07-24T05:27:44;37.60;;;15.17;;
5730;SDS011;2890;51.950;7.668;2023-07-24T05:30:10;22.90;;;13.47;;
5730;SDS011;2890;51.950;7.668;2023-07-24T05:32:37;22.80;;;13.93;;
5730;SDS011;2890;51.950;7.668;2023-07-24T05:35:04;18.10;;;11.77;;
5730;SDS011;2890;51.950;7.668;2023-07-24T05:37:31;18.60;;;12.97;;
5730;SDS011;2890;51.950;7.668;2023-07-24T05:39:57;31.10;;;15.00;;
5730;SDS011;2890;51.950;7.668;2023-07-24T05:42:24;22.60;;;13.07;;
5730;SDS011;2890;51.950;7.668;2023-07-24T05:44:52;23.23;;;13.73;;
5730;SDS011;2890;51.950;7.668;2023-07-24T05:47:18;15.13;;;10.47;;
5730;SDS011;2890;51.950;7.668;2023-07-24T05:49:44;19.10;;;11.80;;
5730;SDS011;2890;51.950;7.668;2023-07-24T05:52:11;15.77;;;11.23;;
5730;SDS011;2890;51.950;7.668;2023-07-24T05:54:37;19.87;;;11.47;;
5730;SDS011;2890;51.950;7.668;2023-07-24T05:57:04;26.07;;;12.30;;
5730;SDS011;2890;51.950;7.668;2023-07-24T05:59:31;17.50;;;11.07;;
5730;SDS011;2890;51.950;7.668;2023-07-24T06:01:59;21.60;;;13.00;;
5730;SDS011;2890;51.950;7.668;2023-07-24T06:04:25;22.40;;;12.30;;
5730;SDS011;2890;51.950;7.668;2023-07-24T06:06:52;24.47;;;13.80;;
5730;SDS011;2890;51.950;7.668;2023-07-24T06:09:18;17.37;;;12.53;;
5730;SDS011;2890;51.950;7.668;2023-07-24T06:11:45;18.00;;;13.40;;
5730;SDS011;2890;51.950;7.668;2023-07-24T06:14:11;23.63;;;15.20;;
5730;SDS011;2890;51.950;7.668;2023-07-24T06:16:38;18.90;;;13.80;;
5730;SDS011;2890;51.950;7.668;2023-07-24T06:19:06;19.67;;;14.87;;
5730;SDS011;2890;51.950;7.668;2023-07-24T06:21:32;22.97;;;16.10;;
5730;SDS011;2890;51.950;7.668;2023-07-24T06:23:59;27.70;;;16.23;;
5730;SDS011;2890;51.950;7.668;2023-07-24T06:26:25;21.30;;;16.47;;
5730;SDS011;2890;51.950;7.668;2023-07-24T06:28:52;25.53;;;16.97;;
5730;SDS011;2890;51.950;7.668;2023-07-24T06:31:18;28.93;;;18.33;;
5730;SDS011;2890;51.950;7.668;2023-07-24T06:33:45;27.90;;;17.70;;
5730;SDS011;2890;51.950;7.668;2023-07-24T06:36:12;29.13;;;19.13;;
5730;SDS011;2890;51.950;7.668;2023-07-24T06:38:39;22.30;;;19.90;;
5730;SDS011;2890;51.950;7.668;2023-07-24T06:41:07;32.30;;;21.63;;
5730;SDS011;2890;51.950;7.668;2023-07-24T06:43:34;34.53;;;22.77;;
5730;SDS011;2890;51.950;7.668;2023-07-24T06:46:00;37.20;;;24.30;;
5730;SDS011;2890;51.950;7.668;2023-07-24T06:48:27;22.13;;;19.83;;
5730;SDS011;2890;51.950;7.668;2023-07-24T06:50:53;26.87;;;20.87;;
5730;SDS011;2890;51.950;7.668;2023-07-24T06:53:21;24.50;;;20.80;;
5730;SDS011;2890;51.950;7.668;2023-07-24T06:55:47;25.40;;;21.27;;
5730;SDS011;2890;51.950;7.668;2023-07-24T06:58:14;30.30;;;22.93;;
5730;SDS011;2890;51.950;7.668;2023-07-24T07:00:40;27.63;;;21.90;;
5730;SDS011;2890;51.950;7.668;2023-07-24T07:03:07;22.77;;;20.33;;
5730;SDS011;2890;51.950;7.668;2023-07-24T07:05:33;23.70;;;20.73;;
5730;SDS011;2890;51.950;7.668;2023-07-24T07:08:00;24.43;;;20.07;;
5730;SDS011;2890;51.950;7.668;2023-07-24T07:10:35;23.17;;;20.27;;
5730;SDS011;2890;51.950;7.668;2023-07-24T07:13:02;25.67;;;20.03;;
5730;SDS011;2890;51.950;7.668;2023-07-24T07:15:29;23.90;;;19.80;;
5730;SDS011;2890;51.950;7.668;2023-07-24T07:17:55;23.87;;;20.27;;
5730;SDS011;2890;51.950;7.668;2023-07-24T07:20:21;33.50;;;22.60;;
5730;SDS011;2890;51.950;7.668;2023-07-24T07:22:48;22.93;;;20.10;;
5730;SDS011;2890;51.950;7.668;2023-07-24T07:25:15;22.00;;;19.10;;
5730;SDS011;2890;51.950;7.668;2023-07-24T07:27:42;22.80;;;20.40;;
5730;SDS011;2890;51.950;7.668;2023-07-24T07:30:09;25.10;;;20.03;;
5730;SDS011;2890;51.950;7.668;2023-07-24T07:32:37;24.10;;;19.93;;
5730;SDS011;2890;51.950;7.668;2023-07-24T07:35:03;23.87;;;20.60;;
5730;SDS011;2890;51.950;7.668;2023-07-24T07:37:30;23.20;;;20.70;;
5730;SDS011;2890;51.950;7.668;2023-07-24T07:39:57;24.23;;;21.67;;
5730;SDS011;2890;51.950;7.668;2023-07-24T07:42:23;24.93;;;20.27;;
5730;SDS011;2890;51.950;7.668;2023-07-24T07:44:51;24.60;;;21.20;;
5730;SDS011;2890;51.950;7.668;2023-07-24T07:47:17;30.87;;;22.33;;
5730;SDS011;2890;51.950;7.668;2023-07-24T07:49:44;25.97;;;21.33;;
5730;SDS011;2890;51.950;7.668;2023-07-24T07:52:10;27.03;;;22.93;;
5730;SDS011;2890;51.950;7.668;2023-07-24T07:54:37;23.50;;;21.20;;
5730;SDS011;2890;51.950;7.668;2023-07-24T07:57:04;22.50;;;20.20;;
5730;SDS011;2890;51.950;7.668;2023-07-24T07:59:31;25.53;;;22.83;;
5730;SDS011;2890;51.950;7.668;2023-07-24T08:02:00;23.20;;;20.87;;
5730;SDS011;2890;51.950;7.668;2023-07-24T08:04:26;27.90;;;22.30;;
5730;SDS011;2890;51.950;7.668;2023-07-24T08:06:53;19.33;;;17.30;;
5730;SDS011;2890;51.950;7.668;2023-07-24T08:09:19;23.27;;;19.90;;
5730;SDS011;2890;51.950;7.668;2023-07-24T08:11:46;17.27;;;15.77;;
5730;SDS011;2890;51.950;7.668;2023-07-24T08:14:13;15.37;;;14.13;;
5730;SDS011;2890;51.950;7.668;2023-07-24T08:16:39;14.67;;;13.27;;
5730;SDS011;2890;51.950;7.668;2023-07-24T08:19:07;7.10;;;6.60;;
5730;SDS011;2890;51.950;7.668;2023-07-24T08:21:33;7.80;;;7.20;;
5730;SDS011;2890;51.950;7.668;2023-07-24T08:24:00;10.13;;;6.87;;
5730;SDS011;2890;51.950;7.668;2023-07-24T08:26:27;6.07;;;5.50;;
5730;SDS011;2890;51.950;7.668;2023-07-24T08:28:54;5.47;;;5.07;;
5730;SDS011;2890;51.950;7.668;2023-07-24T08:31:20;4.80;;;4.50;;
5730;SDS011;2890;51.950;7.668;2023-07-24T08:33:47;5.80;;;4.40;;
5730;SDS011;2890;51.950;7.668;2023-07-24T08:36:15;4.23;;;4.03;;
5730;SDS011;2890;51.950;7.668;2023-07-24T08:38:41;4.10;;;3.77;;
5730;SDS011;2890;51.950;7.668;2023-07-24T08:41:08;4.83;;;4.53;;
5730;SDS011;2890;51.950;7.668;2023-07-24T08:43:36;5.13;;;4.83;;
5730;SDS011;2890;51.950;7.668;2023-07-24T08:46:03;5.33;;;4.93;;
5730;SDS011;2890;51.950;7.668;2023-07-24T08:48:30;4.20;;;3.90;;
5730;SDS011;2890;51.950;7.668;2023-07-24T08:51:00;9.07;;;5.97;;
5730;SDS011;2890;51.950;7.668;2023-07-24T08:53:29;5.33;;;4.93;;
5730;SDS011;2890;51.950;7.668;2023-07-24T08:55:57;3.97;;;3.77;;
5730;SDS011;2890;51.950;7.668;2023-07-24T08:58:25;4.17;;;3.87;;
5730;SDS011;2890;51.950;7.668;2023-07-24T09:00:52;3.60;;;3.40;;
5730;SDS011;2890;51.950;7.668;2023-07-24T09:03:18;3.93;;;3.63;;
5730;SDS011;2890;51.950;7.668;2023-07-24T09:05:45;3.40;;;3.17;;
5730;SDS011;2890;51.950;7.668;2023-07-24T09:08:12;3.80;;;3.60;;
5730;SDS011;2890;51.950;7.668;2023-07-24T09:10:40;5.27;;;4.20;;
5730;SDS011;2890;51.950;7.668;2023-07-24T09:13:07;3.27;;;2.97;;
5730;SDS011;2890;51.950;7.668;2023-07-24T09:15:39;3.00;;;2.80;;
5730;SDS011;2890;51.950;7.668;2023-07-24T09:18:06;2.87;;;2.67;;
5730;SDS011;2890;51.950;7.668;2023-07-24T09:20:38;3.00;;;2.80;;
5730;SDS011;2890;51.950;7.668;2023-07-24T09:23:04;2.63;;;2.43;;
5730;SDS011;2890;51.950;7.668;2023-07-24T09:25:31;3.40;;;3.20;;
5730;SDS011;2890;51.950;7.668;2023-07-24T09:28:00;2.40;;;2.20;;
5730;SDS011;2890;51.950;7.668;2023-07-24T09:30:26;2.60;;;2.40;;
5730;SDS011;2890;51.950;7.668;2023-07-24T09:32:53;2.50;;;2.30;;
5730;SDS011;2890;51.950;7.668;2023-07-24T09:35:21;2.20;;;2.10;;
5730;SDS011;2890;51.950;7.668;2023-07-24T09:38:00;3.30;;;2.43;;
5730;SDS011;2890;51.950;7.668;2023-07-24T09:40:28;2.60;;;2.40;;
5730;SDS011;2890;51.950;7.668;2023-07-24T09:42:54;2.53;;;2.33;;
5730;SDS011;2890;51.950;7.668;2023-07-24T09:45:22;3.40;;;2.57;;
5730;SDS011;2890;51.950;7.668;2023-07-24T09:47:48;2.33;;;2.13;;
5730;SDS011;2890;51.950;7.668;2023-07-24T09:50:15;2.40;;;2.20;;
5730;SDS011;2890;51.950;7.668;2023-07-24T09:52:41;3.13;;;2.47;;
5730;SDS011;2890;51.950;7.668;2023-07-24T09:55:10;2.73;;;2.53;;
5730;SDS011;2890;51.950;7.668;2023-07-24T09:57:37;2.47;;;2.27;;
5730;SDS011;2890;51.950;7.668;2023-07-24T10:00:05;3.90;;;2.47;;
5730;SDS011;2890;51.950;7.668;2023-07-24T10:02:34;2.67;;;2.47;;
5730;SDS011;2890;51.950;7.668;2023-07-24T10:05:01;3.27;;;2.47;;
5730;SDS011;2890;51.950;7.668;2023-07-24T10:07:28;5.40;;;2.20;;
5730;SDS011;2890;51.950;7.668;2023-07-24T10:09:54;2.87;;;2.67;;
5730;SDS011;2890;51.950;7.668;2023-07-24T10:12:21;3.60;;;2.80;;
5730;SDS011;2890;51.950;7.668;2023-07-24T10:14:48;3.13;;;2.83;;
5730;SDS011;2890;51.950;7.668;2023-07-24T10:17:23;3.17;;;2.93;;
5730;SDS011;2890;51.950;7.668;2023-07-24T10:20:03;3.10;;;2.90;;
5730;SDS011;2890;51.950;7.668;2023-07-24T10:22:30;3.40;;;2.60;;
5730;SDS011;2890;51.950;7.668;2023-07-24T10:24:56;3.20;;;2.30;;
5730;SDS011;2890;51.950;7.668;2023-07-24T10:27:23;2.73;;;2.53;;
5730;SDS011;2890;51.950;7.668;2023-07-24T10:29:57;2.80;;;2.60;;
5730;SDS011;2890;51.950;7.668;2023-07-24T10:32:24;4.07;;;2.70;;
5730;SDS011;2890;51.950;7.668;2023-07-24T10:34:59;3.00;;;2.70;;
5730;SDS011;2890;51.950;7.668;2023-07-24T10:37:34;2.83;;;2.27;;
5730;SDS011;2890;51.950;7.668;2023-07-24T10:40:02;2.50;;;2.30;;
5730;SDS011;2890;51.950;7.668;2023-07-24T10:42:29;2.73;;;2.53;;
5730;SDS011;2890;51.950;7.668;2023-07-24T10:45:01;3.00;;;2.80;;
5730;SDS011;2890;51.950;7.668;2023-07-24T10:47:31;4.03;;;3.40;;
5730;SDS011;2890;51.950;7.668;2023-07-24T10:49:58;3.50;;;3.20;;
5730;SDS011;2890;51.950;7.668;2023-07-24T10:52:27;4.10;;;3.70;;
5730;SDS011;2890;51.950;7.668;2023-07-24T10:54:56;3.63;;;3.33;;
5730;SDS011;2890;51.950;7.668;2023-07-24T10:57:25;4.60;;;4.20;;
5730;SDS011;2890;51.950;7.668;2023-07-24T10:59:51;3.77;;;3.47;;
5730;SDS011;2890;51.950;7.668;2023-07-24T11:02:18;3.30;;;3.10;;
5730;SDS011;2890;51.950;7.668;2023-07-24T11:04:45;3.60;;;3.30;;
5730;SDS011;2890;51.950;7.668;2023-07-24T11:07:11;3.40;;;2.90;;
5730;SDS011;2890;51.950;7.668;2023-07-24T11:09:39;3.00;;;2.70;;
5730;SDS011;2890;51.950;7.668;2023-07-24T11:12:11;3.40;;;3.17;;
5730;SDS011;2890;51.950;7.668;2023-07-24T11:14:45;3.10;;;2.90;;
5730;SDS011;2890;51.950;7.668;2023-07-24T11:17:13;3.70;;;3.10;;
5730;SDS011;2890;51.950;7.668;2023-07-24T11:19:39;3.50;;;3.30;;
5730;SDS011;2890;51.950;7.668;2023-07-24T11:22:06;4.77;;;3.40;;
5730;SDS011;2890;51.950;7.668;2023-07-24T11:24:33;4.90;;;3.50;;
5730;SDS011;2890;51.950;7.668;2023-07-24T11:27:00;3.23;;;3.03;;
5730;SDS011;2890;51.950;7.668;2023-07-24T11:29:28;3.07;;;2.67;;
5730;SDS011;2890;51.950;7.668;2023-07-24T11:31:59;3.53;;;3.30;;
5730;SDS011;2890;51.950;7.668;2023-07-24T11:34:25;3.20;;;3.00;;
5730;SDS011;2890;51.950;7.668;2023-07-24T11:36:52;2.80;;;2.57;;
5730;SDS011;2890;51.950;7.668;2023-07-24T11:39:21;3.00;;;2.80;;
5730;SDS011;2890;51.950;7.668;2023-07-24T11:41:48;2.87;;;2.67;;
5730;SDS011;2890;51.950;7.668;2023-07-24T11:44:14;3.13;;;2.83;;
5730;SDS011;2890;51.950;7.668;2023-07-24T11:46:43;3.17;;;2.87;;
5730;SDS011;2890;51.950;7.668;2023-07-24T11:49:13;2.60;;;2.40;;
5730;SDS011;2890;51.950;7.668;2023-07-24T11:51:40;5.30;;;2.87;;
5730;SDS011;2890;51.950;7.668;2023-07-24T11:54:07;2.70;;;2.50;;
5730;SDS011;2890;51.950;7.668;2023-07-24T11:56:36;2.43;;;2.23;;
5730;SDS011;2890;51.950;7.668;2023-07-24T11:59:10;3.10;;;2.37;;
5730;SDS011;2890;51.950;7.668;2023-07-24T12:01:37;2.60;;;2.40;;
5730;SDS011;2890;51.950;7.668;2023-07-24T12:04:05;2.70;;;2.50;;
5730;SDS011;2890;51.950;7.668;2023-07-24T12:06:31;2.57;;;2.37;;
5730;SDS011;2890;51.950;7.668;2023-07-24T12:09:01;3.97;;;3.70;;
5730;SDS011;2890;51.950;7.668;2023-07-24T12:11:29;4.63;;;4.23;;
5730;SDS011;2890;51.950;7.668;2023-07-24T12:13:56;4.30;;;4.00;;
5730;SDS011;2890;51.950;7.668;2023-07-24T12:16:23;4.33;;;4.03;;
5730;SDS011;2890;51.950;7.668;2023-07-24T12:18:49;5.60;;;5.10;;
5730;SDS011;2890;51.950;7.668;2023-07-24T12:21:17;4.23;;;3.73;;
5730;SDS011;2890;51.950;7.668;2023-07-24T12:23:43;4.00;;;3.80;;
5730;SDS011;2890;51.950;7.668;2023-07-24T12:26:10;4.50;;;4.20;;
5730;SDS011;2890;51.950;7.668;2023-07-24T12:28:36;4.40;;;4.00;;
5730;SDS011;2890;51.950;7.668;2023-07-24T12:31:03;5.37;;;5.07;;
5730;SDS011;2890;51.950;7.668;2023-07-24T12:33:30;8.30;;;6.20;;
5730;SDS011;2890;51.950;7.668;2023-07-24T12:35:57;8.40;;;7.70;;
5730;SDS011;2890;51.950;7.668;2023-07-24T12:38:25;7.87;;;7.37;;
5730;SDS011;2890;51.950;7.668;2023-07-24T12:40:51;9.37;;;8.87;;
5730;SDS011;2890;51.950;7.668;2023-07-24T12:43:18;12.43;;;11.40;;
5730;SDS011;2890;51.950;7.668;2023-07-24T12:45:44;17.27;;;15.67;;
5730;SDS011;2890;51.950;7.668;2023-07-24T12:48:12;19.17;;;16.90;;
5730;SDS011;2890;51.950;7.668;2023-07-24T12:50:39;22.27;;;19.97;;
5730;SDS011;2890;51.950;7.668;2023-07-24T12:53:06;18.70;;;16.60;;
5730;SDS011;2890;51.950;7.668;2023-07-24T12:55:34;27.63;;;18.60;;
5730;SDS011;2890;51.950;7.668;2023-07-24T12:58:00;35.43;;;23.37;;
5730;SDS011;2890;51.950;7.668;2023-07-24T13:00:28;15.53;;;14.03;;
5730;SDS011;2890;51.950;7.668;2023-07-24T13:02:55;28.80;;;21.10;;
5730;SDS011;2890;51.950;7.668;2023-07-24T13:05:21;49.17;;;27.47;;
5730;SDS011;2890;51.950;7.668;2023-07-24T13:07:48;40.00;;;26.57;;
5730;SDS011;2890;51.950;7.668;2023-07-24T13:10:14;43.07;;;24.83;;
5730;SDS011;2890;51.950;7.668;2023-07-24T13:12:42;37.43;;;23.70;;
5730;SDS011;2890;51.950;7.668;2023-07-24T13:15:09;29.50;;;20.20;;
5730;SDS011;2890;51.950;7.668;2023-07-24T13:17:36;16.97;;;15.10;;
5730;SDS011;2890;51.950;7.668;2023-07-24T13:20:04;17.13;;;14.97;;
5730;SDS011;2890;51.950;7.668;2023-07-24T13:22:31;13.27;;;11.97;;
5730;SDS011;2890;51.950;7.668;2023-07-24T13:24:58;14.30;;;12.50;;
5730;SDS011;2890;51.950;7.668;2023-07-24T13:27:24;15.67;;;13.97;;
5730;SDS011;2890;51.950;7.668;2023-07-24T13:29:53;10.57;;;9.77;;
5730;SDS011;2890;51.950;7.668;2023-07-24T13:32:19;10.40;;;9.67;;
5730;SDS011;2890;51.950;7.668;2023-07-24T13:34:46;9.10;;;8.50;;
5730;SDS011;2890;51.950;7.668;2023-07-24T13:37:15;8.90;;;8.20;;
5730;SDS011;2890;51.950;7.668;2023-07-24T13:39:41;9.67;;;8.90;;
5730;SDS011;2890;51.950;7.668;2023-07-24T13:42:08;8.70;;;8.10;;
5730;SDS011;2890;51.950;7.668;2023-07-24T13:44:35;7.90;;;7.40;;
5730;SDS011;2890;51.950;7.668;2023-07-24T13:47:03;7.97;;;7.27;;
5730;SDS011;2890;51.950;7.668;2023-07-24T13:49:30;7.63;;;7.00;;
5730;SDS011;2890;51.950;7.668;2023-07-24T13:51:57;6.93;;;6.53;;
5730;SDS011;2890;51.950;7.668;2023-07-24T13:54:24;7.10;;;6.70;;
5730;SDS011;2890;51.950;7.668;2023-07-24T13:56:50;6.70;;;6.10;;
5730;SDS011;2890;51.950;7.668;2023-07-24T13:59:17;7.27;;;6.77;;
5730;SDS011;2890;51.950;7.668;2023-07-24T14:01:43;6.10;;;5.70;;
5730;SDS011;2890;51.950;7.668;2023-07-24T14:04:12;6.90;;;6.40;;
5730;SDS011;2890;51.950;7.668;2023-07-24T14:06:39;6.60;;;6.20;;
5730;SDS011;2890;51.950;7.668;2023-07-24T14:09:06;6.30;;;5.90;;
5730;SDS011;2890;51.950;7.668;2023-07-24T14:11:33;7.33;;;6.93;;
5730;SDS011;2890;51.950;7.668;2023-07-24T14:14:00;7.27;;;6.70;;
5730;SDS011;2890;51.950;7.668;2023-07-24T14:16:27;7.60;;;7.10;;
5730;SDS011;2890;51.950;7.668;2023-07-24T14:18:53;7.43;;;7.03;;
5730;SDS011;2890;51.950;7.668;2023-07-24T14:21:21;8.10;;;7.50;;
5730;SDS011;2890;51.950;7.668;2023-07-24T14:23:47;7.37;;;6.97;;
5730;SDS011;2890;51.950;7.668;2023-07-24T14:26:14;8.07;;;7.57;;
5730;SDS011;2890;51.950;7.668;2023-07-24T14:28:40;8.00;;;7.50;;
5730;SDS011;2890;51.950;7.668;2023-07-24T14:31:07;7.97;;;7.37;;
5730;SDS011;2890;51.950;7.668;2023-07-24T14:33:33;7.30;;;6.90;;
5730;SDS011;2890;51.950;7.668;2023-07-24T14:36:00;7.90;;;7.50;;
5730;SDS011;2890;51.950;7.668;2023-07-24T14:38:28;7.80;;;7.40;;
5730;SDS011;2890;51.950;7.668;2023-07-24T14:40:54;7.23;;;6.73;;
5730;SDS011;2890;51.950;7.668;2023-07-24T14:43:21;6.77;;;6.47;;
5730;SDS011;2890;51.950;7.668;2023-07-24T14:45:47;6.43;;;5.83;;
5730;SDS011;2890;51.950;7.668;2023-07-24T14:48:14;6.00;;;5.70;;
5730;SDS011;2890;51.950;7.668;2023-07-24T14:50:41;5.93;;;5.30;;
5730;SDS011;2890;51.950;7.668;2023-07-24T14:53:08;5.90;;;5.50;;
5730;SDS011;2890;51.950;7.668;2023-07-24T14:55:36;5.73;;;5.33;;
5730;SDS011;2890;51.950;7.668;2023-07-24T14:58:02;5.40;;;4.90;;
5730;SDS011;2890;51.950;7.668;2023-07-24T15:00:29;6.00;;;5.70;;
5730;SDS011;2890;51.950;7.668;2023-07-24T15:02:56;5.30;;;4.80;;